createdAt,value
2023-05-05T00:00:42.514Z,23.63
2023-05-05T00:01:42.544Z,23.63
2023-05-05T00:02:42.683Z,23.58
2023-05-05T00:03:42.833Z,23.61
2023-05-05T00:04:42.674Z,23.62
2023-05-05T00:05:42.708Z,23.60
2023-05-05T00:06:42.758Z,23.58
2023-05-05T00:07:42.776Z,23.59
2023-05-05T00:08:42.829Z,23.61
2023-05-05T00:09:42.866Z,23.62
2023-05-05T00:10:42.910Z,23.65
2023-05-05T00:11:42.956Z,23.65
2023-05-05T00:12:43.129Z,23.60
2023-05-05T00:13:43.110Z,23.60
2023-05-05T00:14:43.131Z,23.71
2023-05-05T00:15:43.141Z,23.65
2023-05-05T00:16:43.269Z,23.66
2023-05-05T00:17:43.331Z,23.66
2023-05-05T00:18:43.319Z,23.67
2023-05-05T00:19:43.340Z,23.70
2023-05-05T00:20:43.423Z,23.66
2023-05-05T00:21:43.452Z,23.70
2023-05-05T00:22:43.467Z,23.65
2023-05-05T00:23:43.534Z,23.68
2023-05-05T00:24:43.605Z,23.67
2023-05-05T00:25:43.669Z,23.68
2023-05-05T00:26:43.679Z,23.71
2023-05-05T00:27:43.719Z,23.73
2023-05-05T00:28:43.772Z,23.74
2023-05-05T00:29:43.791Z,23.67
2023-05-05T00:30:43.840Z,23.68
2023-05-05T00:31:43.964Z,23.71
2023-05-05T00:32:43.996Z,23.74
2023-05-05T00:33:43.991Z,23.72
2023-05-05T00:34:44.056Z,23.71
2023-05-05T00:35:44.109Z,23.75
2023-05-05T00:36:44.147Z,23.79
2023-05-05T00:37:44.168Z,23.80
2023-05-05T00:38:44.279Z,23.79
2023-05-05T00:39:44.291Z,23.74
2023-05-05T00:40:44.349Z,23.78
2023-05-05T00:41:44.387Z,23.80
2023-05-05T00:42:44.428Z,23.80
2023-05-05T00:43:44.512Z,23.68
2023-05-05T00:44:44.555Z,23.78
2023-05-05T00:45:44.581Z,23.82
2023-05-05T00:46:44.704Z,23.83
2023-05-05T00:47:44.775Z,23.76
2023-05-05T00:48:44.761Z,23.82
2023-05-05T00:49:44.854Z,23.79
2023-05-05T00:50:44.922Z,23.79
2023-05-05T00:51:44.980Z,23.83
2023-05-05T00:52:44.977Z,23.83
2023-05-05T00:53:45.082Z,23.87
2023-05-05T00:54:45.102Z,23.82
2023-05-05T00:55:45.141Z,23.87
2023-05-05T00:56:45.203Z,23.83
2023-05-05T00:57:45.260Z,23.83
2023-05-05T00:58:45.284Z,23.79
2023-05-05T00:59:45.368Z,23.83
2023-05-05T01:00:45.427Z,23.83
2023-05-05T01:01:45.500Z,23.79
2023-05-05T01:02:45.615Z,23.80
2023-05-05T01:03:45.700Z,23.80
2023-05-05T01:04:45.637Z,23.83
2023-05-05T01:05:45.734Z,23.82
2023-05-05T01:06:45.778Z,23.84
2023-05-05T01:07:45.798Z,23.83
2023-05-05T01:08:45.890Z,23.83
2023-05-05T01:09:45.957Z,23.83
2023-05-05T01:10:46.027Z,23.88
2023-05-05T01:11:46.060Z,23.83
2023-05-05T01:12:46.122Z,23.81
2023-05-05T01:13:46.137Z,23.83
2023-05-05T01:14:46.216Z,23.80
2023-05-05T01:15:46.250Z,23.83
2023-05-05T01:16:46.351Z,23.85
2023-05-05T01:17:46.414Z,23.83
2023-05-05T01:18:46.494Z,23.84
2023-05-05T01:19:46.511Z,23.80
2023-05-05T01:20:46.606Z,23.83
2023-05-05T01:21:46.646Z,23.87
2023-05-05T01:22:46.686Z,23.88
2023-05-05T01:23:46.740Z,23.91
2023-05-05T01:24:46.830Z,23.93
2023-05-05T01:25:46.840Z,23.84
2023-05-05T01:26:46.920Z,23.88
2023-05-05T01:27:47.010Z,23.80
2023-05-05T01:28:47.031Z,23.87
2023-05-05T01:29:47.121Z,23.87
2023-05-05T01:30:47.172Z,23.89
2023-05-05T01:31:47.241Z,23.85
2023-05-05T01:32:47.400Z,23.85
2023-05-05T01:33:47.334Z,23.87
2023-05-05T01:34:47.421Z,23.88
2023-05-05T01:35:47.466Z,23.84
2023-05-05T01:36:47.529Z,23.92
2023-05-05T01:37:47.580Z,23.89
2023-05-05T01:38:47.644Z,23.89
2023-05-05T01:39:47.680Z,23.92
2023-05-05T01:40:47.765Z,23.92
2023-05-05T01:41:47.797Z,23.82
2023-05-05T01:42:47.871Z,23.87
2023-05-05T01:43:47.926Z,23.91
2023-05-05T01:44:48.071Z,23.89
2023-05-05T01:45:48.156Z,23.91
2023-05-05T01:46:48.125Z,23.92
2023-05-05T01:47:48.233Z,23.93
2023-05-05T01:48:48.222Z,23.88
2023-05-05T01:49:48.300Z,23.99
2023-05-05T01:50:48.375Z,23.95
2023-05-05T01:51:48.440Z,23.93
2023-05-05T01:52:48.484Z,23.95
2023-05-05T01:53:48.546Z,23.97
2023-05-05T01:54:48.616Z,23.96
2023-05-05T01:55:48.695Z,23.91
2023-05-05T01:56:48.716Z,23.95
2023-05-05T01:57:48.797Z,23.91
2023-05-05T01:58:48.840Z,23.97
2023-05-05T01:59:48.956Z,23.90
2023-05-05T02:00:48.955Z,23.96
2023-05-05T02:01:49.032Z,24.04
2023-05-05T02:02:49.327Z,23.94
2023-05-05T02:03:49.149Z,23.97
2023-05-05T02:04:49.220Z,23.97
2023-05-05T02:05:49.295Z,23.96
2023-05-05T02:06:49.367Z,23.89
2023-05-05T02:07:49.379Z,23.96
2023-05-05T02:08:49.459Z,23.95
2023-05-05T02:09:49.493Z,24.01
2023-05-05T02:10:49.611Z,23.93
2023-05-05T02:11:49.650Z,23.96
2023-05-05T02:12:49.713Z,23.94
2023-05-05T02:13:49.746Z,24.00
2023-05-05T02:14:49.843Z,23.97
2023-05-05T02:15:49.866Z,24.00
2023-05-05T02:16:49.915Z,24.06
2023-05-05T02:17:50.010Z,23.99
2023-05-05T02:18:50.076Z,24.02
2023-05-05T02:19:50.110Z,24.02
2023-05-05T02:20:50.193Z,23.98
2023-05-05T02:21:50.243Z,23.93
2023-05-05T02:22:50.266Z,24.02
2023-05-05T02:23:50.347Z,24.00
2023-05-05T02:24:50.348Z,24.05
2023-05-05T02:25:50.432Z,24.04
2023-05-05T02:26:50.465Z,23.98
2023-05-05T02:27:50.544Z,23.98
2023-05-05T02:28:50.549Z,24.02
2023-05-05T02:29:50.633Z,24.02
2023-05-05T02:30:50.669Z,24.04
2023-05-05T02:31:50.807Z,24.05
2023-05-05T02:32:50.820Z,24.04
2023-05-05T02:33:50.796Z,24.01
2023-05-05T02:34:50.834Z,23.98
2023-05-05T02:35:50.905Z,24.01
2023-05-05T02:36:50.941Z,24.06
2023-05-05T02:37:51.048Z,24.06
2023-05-05T02:38:51.028Z,24.05
2023-05-05T02:39:51.106Z,24.04
2023-05-05T02:40:51.171Z,24.05
2023-05-05T02:41:51.149Z,24.04
2023-05-05T02:42:51.263Z,24.08
2023-05-05T02:43:51.285Z,24.10
2023-05-05T02:44:51.269Z,24.05
2023-05-05T02:45:51.347Z,24.01
2023-05-05T02:46:51.409Z,24.02
2023-05-05T02:47:51.443Z,24.05
2023-05-05T02:48:51.546Z,24.05
2023-05-05T02:49:51.506Z,24.01
2023-05-05T02:50:51.557Z,24.02
2023-05-05T02:51:51.658Z,23.99
2023-05-05T02:52:51.669Z,24.06
2023-05-05T02:53:51.703Z,24.05
2023-05-05T02:54:51.755Z,24.06
2023-05-05T02:55:51.778Z,24.05
2023-05-05T02:56:51.838Z,24.09
2023-05-05T02:57:51.875Z,24.09
2023-05-05T02:58:51.884Z,24.09
2023-05-05T02:59:51.927Z,24.08
2023-05-05T03:00:51.994Z,24.03
2023-05-05T03:01:52.103Z,24.10
2023-05-05T03:02:52.181Z,24.11
2023-05-05T03:03:52.324Z,24.13
2023-05-05T03:04:52.170Z,24.10
2023-05-05T03:05:52.199Z,24.13
2023-05-05T03:06:52.254Z,24.08
2023-05-05T03:07:52.258Z,24.06
2023-05-05T03:08:52.313Z,24.05
2023-05-05T03:09:52.362Z,24.09
2023-05-05T03:10:52.380Z,24.13
2023-05-05T03:11:52.415Z,24.08
2023-05-05T03:12:52.539Z,24.08
2023-05-05T03:13:52.533Z,24.10
2023-05-05T03:14:52.546Z,24.15
2023-05-05T03:15:52.581Z,24.11
2023-05-05T03:16:52.592Z,24.11
2023-05-05T03:17:52.688Z,24.13
2023-05-05T03:18:52.626Z,24.17
2023-05-05T03:19:52.669Z,24.06
2023-05-05T03:20:52.701Z,24.05
2023-05-05T03:21:52.694Z,24.13
2023-05-05T03:22:52.764Z,24.18
2023-05-05T03:23:52.754Z,24.10
2023-05-05T03:24:52.783Z,24.14
2023-05-05T03:25:52.785Z,24.10
2023-05-05T03:26:52.787Z,24.07
2023-05-05T03:27:52.796Z,24.04
2023-05-05T03:28:52.829Z,24.14
2023-05-05T03:29:52.834Z,24.07
2023-05-05T03:30:52.846Z,24.10
2023-05-05T03:31:52.915Z,24.13
2023-05-05T03:32:52.994Z,24.14
2023-05-05T03:33:52.975Z,24.13
2023-05-05T03:34:53.010Z,24.19
2023-05-05T03:35:53.035Z,24.14
2023-05-05T03:36:53.031Z,24.11
2023-05-05T03:37:53.035Z,24.10
2023-05-05T03:38:53.095Z,24.15
2023-05-05T03:39:53.084Z,24.15
2023-05-05T03:40:53.093Z,24.15
2023-05-05T03:41:53.103Z,24.19
2023-05-05T03:42:53.151Z,24.15
2023-05-05T03:43:53.172Z,24.17
2023-05-05T03:44:53.212Z,24.20
2023-05-05T03:45:53.273Z,24.17
2023-05-05T03:46:53.197Z,24.15
2023-05-05T03:47:53.334Z,24.17
2023-05-05T03:48:53.320Z,24.15
2023-05-05T03:49:53.279Z,24.11
2023-05-05T03:50:53.293Z,24.17
2023-05-05T03:51:53.312Z,24.15
2023-05-05T03:52:53.343Z,24.22
2023-05-05T03:53:53.397Z,24.15
2023-05-05T03:54:53.360Z,24.20
2023-05-05T03:55:53.364Z,24.19
2023-05-05T03:56:53.357Z,24.20
2023-05-05T03:57:53.418Z,24.19
2023-05-05T03:58:53.425Z,24.22
2023-05-05T03:59:53.388Z,24.24
2023-05-05T04:00:53.436Z,24.19
2023-05-05T04:01:53.414Z,24.23
2023-05-05T04:02:53.485Z,24.20
2023-05-05T04:03:53.480Z,24.24
2023-05-05T04:04:53.430Z,24.17
2023-05-05T04:05:53.498Z,24.15
2023-05-05T04:06:53.433Z,24.11
2023-05-05T04:07:53.418Z,24.18
2023-05-05T04:08:53.437Z,24.14
2023-05-05T04:09:53.465Z,24.18
2023-05-05T04:10:53.466Z,24.11
2023-05-05T04:11:53.455Z,24.14
2023-05-05T04:12:53.480Z,24.09
2023-05-05T04:13:53.512Z,24.12
2023-05-05T04:14:53.459Z,24.15
2023-05-05T04:15:53.544Z,24.16
2023-05-05T04:16:53.455Z,24.20
2023-05-05T04:17:53.562Z,24.16
2023-05-05T04:18:53.494Z,24.20
2023-05-05T04:19:53.513Z,24.21
2023-05-05T04:20:53.511Z,24.24
2023-05-05T04:21:53.615Z,24.28
2023-05-05T04:22:53.529Z,24.29
2023-05-05T04:23:53.528Z,24.30
2023-05-05T04:24:53.576Z,24.27
2023-05-05T04:25:53.572Z,24.28
2023-05-05T04:26:53.575Z,24.33
2023-05-05T04:27:53.599Z,24.30
2023-05-05T04:28:53.635Z,24.30
2023-05-05T04:29:53.642Z,24.33
2023-05-05T04:30:53.765Z,24.34
2023-05-05T04:31:53.693Z,24.33
2023-05-05T04:32:53.812Z,24.34
2023-05-05T04:33:53.712Z,24.38
2023-05-05T04:34:53.697Z,24.39
2023-05-05T04:35:53.713Z,24.36
2023-05-05T04:36:53.753Z,24.38
2023-05-05T04:37:53.750Z,24.40
2023-05-05T04:38:53.846Z,24.36
2023-05-05T04:39:53.823Z,24.36
2023-05-05T04:40:53.746Z,24.32
2023-05-05T04:41:53.821Z,24.32
2023-05-05T04:42:53.838Z,24.39
2023-05-05T04:43:53.826Z,24.35
2023-05-05T04:44:53.773Z,24.30
2023-05-05T04:45:53.797Z,24.31
2023-05-05T04:46:53.919Z,24.34
2023-05-05T04:47:53.819Z,24.31
2023-05-05T04:48:53.764Z,24.30
2023-05-05T04:49:53.769Z,24.33
2023-05-05T04:50:53.774Z,24.33
2023-05-05T04:51:53.829Z,24.31
2023-05-05T04:52:53.786Z,24.37
2023-05-05T04:53:53.792Z,24.30
2023-05-05T04:54:53.797Z,24.26
2023-05-05T04:55:53.812Z,24.29
2023-05-05T04:56:53.816Z,24.31
2023-05-05T04:57:53.784Z,24.25
2023-05-05T04:58:53.832Z,24.32
2023-05-05T04:59:53.841Z,24.33
2023-05-05T05:00:53.836Z,24.30
2023-05-05T05:01:53.823Z,24.28
2023-05-05T05:02:53.883Z,24.30
2023-05-05T05:03:53.947Z,24.26
2023-05-05T05:04:53.811Z,24.39
2023-05-05T05:05:53.834Z,24.39
2023-05-05T05:06:53.815Z,24.36
2023-05-05T05:07:53.818Z,24.39
2023-05-05T05:08:53.832Z,24.36
2023-05-05T05:09:53.840Z,24.35
2023-05-05T05:10:53.837Z,24.42
2023-05-05T05:11:53.852Z,24.33
2023-05-05T05:12:53.905Z,24.33
2023-05-05T05:13:53.829Z,24.41
2023-05-05T05:14:53.875Z,24.41
2023-05-05T05:15:53.841Z,24.41
2023-05-05T05:16:53.897Z,24.39
2023-05-05T05:17:53.920Z,24.42
2023-05-05T05:18:53.902Z,24.39
2023-05-05T05:19:53.874Z,24.41
2023-05-05T05:20:53.875Z,24.35
2023-05-05T05:21:53.875Z,24.37
2023-05-05T05:22:54.015Z,24.39
2023-05-05T05:23:53.894Z,24.36
2023-05-05T05:24:53.909Z,24.39
2023-05-05T05:25:53.865Z,24.41
2023-05-05T05:26:53.942Z,24.41
2023-05-05T05:28:08.343Z,24.40
2023-05-05T05:28:54.897Z,24.36
2023-05-05T05:29:53.838Z,24.36
2023-05-05T05:30:53.849Z,24.37
2023-05-05T05:31:53.894Z,24.40
2023-05-05T05:32:53.899Z,24.41
2023-05-05T05:33:53.856Z,24.61
2023-05-05T05:34:53.831Z,24.77
2023-05-05T05:35:53.815Z,24.75
2023-05-05T05:36:53.815Z,25.02
2023-05-05T05:37:53.823Z,25.38
2023-05-05T05:38:53.790Z,25.39
2023-05-05T05:39:53.856Z,25.61
2023-05-05T05:40:53.801Z,25.65
2023-05-05T05:41:53.816Z,26.16
2023-05-05T05:42:53.819Z,26.11
2023-05-05T05:43:53.769Z,26.34
2023-05-05T05:44:54.185Z,26.48
2023-05-05T05:45:53.794Z,26.79
2023-05-05T05:46:53.734Z,27.47
2023-05-05T05:47:53.828Z,27.22
2023-05-05T05:48:53.816Z,27.15
2023-05-05T05:49:53.785Z,27.42
2023-05-05T05:50:53.861Z,27.56
2023-05-05T05:51:53.780Z,27.82
2023-05-05T05:52:53.746Z,27.73
2023-05-05T05:53:53.824Z,27.89
2023-05-05T05:54:53.899Z,27.80
2023-05-05T05:55:53.998Z,27.91
2023-05-05T05:56:54.010Z,27.83
2023-05-05T05:57:54.030Z,27.87
2023-05-05T05:58:54.053Z,27.97
2023-05-05T05:59:54.075Z,27.82
2023-05-05T06:00:54.111Z,28.00
2023-05-05T06:01:54.170Z,27.87
2023-05-05T06:02:54.315Z,27.63
2023-05-05T06:03:54.239Z,27.71
2023-05-05T06:04:54.159Z,27.69
2023-05-05T06:05:54.157Z,27.79
2023-05-05T06:06:54.163Z,27.51
2023-05-05T06:07:54.208Z,27.65
2023-05-05T06:08:54.208Z,27.50
2023-05-05T06:09:54.171Z,27.43
2023-05-05T06:10:54.217Z,27.46
2023-05-05T06:11:54.217Z,27.50
2023-05-05T06:12:54.220Z,27.55
2023-05-05T06:13:54.226Z,27.48
2023-05-05T06:14:54.239Z,27.78
2023-05-05T06:15:54.235Z,27.75
2023-05-05T06:16:54.281Z,27.60
2023-05-05T06:17:54.341Z,27.64
2023-05-05T06:18:54.315Z,27.45
2023-05-05T06:19:54.648Z,27.38
2023-05-05T06:20:54.440Z,27.24
2023-05-05T06:21:54.534Z,27.35
2023-05-05T06:22:54.618Z,27.16
2023-05-05T06:23:54.651Z,27.10
2023-05-05T06:24:54.668Z,27.31
2023-05-05T06:25:54.727Z,27.22
2023-05-05T06:26:54.759Z,27.26
2023-05-05T06:27:54.808Z,27.18
2023-05-05T06:28:54.916Z,27.20
2023-05-05T06:29:54.918Z,27.18
2023-05-05T06:30:54.964Z,27.17
2023-05-05T06:31:55.062Z,27.20
2023-05-05T06:32:55.079Z,27.20
2023-05-05T06:33:55.098Z,27.21
2023-05-05T06:34:55.131Z,27.07
2023-05-05T06:35:55.214Z,26.98
2023-05-05T06:36:55.232Z,27.01
2023-05-05T06:37:55.273Z,27.16
2023-05-05T06:38:55.293Z,26.79
2023-05-05T06:39:55.365Z,26.62
2023-05-05T06:40:55.451Z,26.52
2023-05-05T06:41:55.460Z,26.56
2023-05-05T06:42:55.506Z,26.44
2023-05-05T06:43:55.517Z,26.36
2023-05-05T06:44:55.567Z,26.64
2023-05-05T06:45:55.648Z,26.48
2023-05-05T06:46:55.729Z,26.52
2023-05-05T06:47:55.866Z,26.44
2023-05-05T06:48:55.827Z,26.46
2023-05-05T06:49:55.846Z,26.53
2023-05-05T06:50:55.943Z,26.55
2023-05-05T06:51:55.966Z,26.52
2023-05-05T06:52:56.060Z,26.48
2023-05-05T06:53:56.094Z,26.62
2023-05-05T06:54:56.171Z,26.53
2023-05-05T06:55:56.208Z,26.56
2023-05-05T06:56:58.183Z,26.49
2023-05-05T06:57:56.294Z,26.50
2023-05-05T06:58:56.242Z,27.02
2023-05-05T06:59:56.697Z,26.61
2023-05-05T07:00:56.234Z,26.54
2023-05-05T07:01:56.569Z,26.50
2023-05-05T07:02:56.236Z,26.51
2023-05-05T07:03:56.208Z,26.53
2023-05-05T07:04:56.242Z,26.52
2023-05-05T07:05:56.173Z,26.45
2023-05-05T07:06:56.164Z,26.45
2023-05-05T07:07:56.195Z,26.44
2023-05-05T07:08:56.162Z,26.50
2023-05-05T07:09:56.160Z,26.51
2023-05-05T07:10:56.204Z,26.59
2023-05-05T07:11:56.162Z,26.48
2023-05-05T07:12:56.457Z,26.56
2023-05-05T07:13:56.495Z,26.59
2023-05-05T07:14:56.129Z,26.59
2023-05-05T07:15:56.141Z,26.58
2023-05-05T07:16:56.130Z,26.64
2023-05-05T07:17:56.145Z,26.51
2023-05-05T07:18:56.115Z,26.58
2023-05-05T07:19:56.080Z,26.68
2023-05-05T07:20:56.075Z,26.56
2023-05-05T07:21:56.069Z,26.60
2023-05-05T07:22:56.083Z,26.72
2023-05-05T07:23:56.090Z,26.63
2023-05-05T07:24:56.052Z,26.66
2023-05-05T07:25:56.031Z,26.75
2023-05-05T07:26:56.036Z,26.66
2023-05-05T07:27:56.038Z,26.51
2023-05-05T07:28:56.117Z,26.72
2023-05-05T07:29:56.050Z,26.52
2023-05-05T07:30:56.008Z,26.58
2023-05-05T07:31:56.049Z,26.48
2023-05-05T07:32:55.995Z,26.16
2023-05-05T07:33:56.001Z,25.70
2023-05-05T07:34:55.967Z,25.79
2023-05-05T07:35:55.979Z,25.63
2023-05-05T07:36:55.952Z,25.54
2023-05-05T07:37:55.949Z,25.72
2023-05-05T07:38:55.994Z,25.81
2023-05-05T07:39:55.949Z,25.87
2023-05-05T07:40:55.959Z,25.99
2023-05-05T07:41:55.963Z,26.01
2023-05-05T07:42:55.935Z,26.10
2023-05-05T07:43:55.924Z,26.03
2023-05-05T07:44:56.067Z,25.96
2023-05-05T07:45:55.948Z,25.94
2023-05-05T07:46:55.892Z,25.94
2023-05-05T07:47:55.912Z,25.97
2023-05-05T07:48:55.855Z,26.05
2023-05-05T07:49:55.904Z,26.01
2023-05-05T07:50:55.980Z,26.00
2023-05-05T07:51:56.011Z,25.92
2023-05-05T07:53:56.146Z,25.86
2023-05-05T07:54:56.191Z,25.82
2023-05-05T07:55:56.244Z,25.81
2023-05-05T07:56:56.304Z,25.73
2023-05-05T07:57:56.319Z,25.78
2023-05-05T07:58:56.389Z,25.71
2023-05-05T07:59:56.395Z,25.69
2023-05-05T08:00:56.492Z,25.68
2023-05-05T08:01:56.451Z,25.59
2023-05-05T08:02:56.560Z,25.58
2023-05-05T08:03:56.638Z,25.57
2023-05-05T08:04:56.567Z,25.53
2023-05-05T08:05:56.600Z,25.48
2023-05-05T08:06:56.643Z,25.43
2023-05-05T08:07:56.662Z,25.42
2023-05-05T08:08:56.647Z,25.36
2023-05-05T08:09:56.688Z,25.36
2023-05-05T08:10:56.722Z,25.37
2023-05-05T08:11:56.720Z,25.27
2023-05-05T08:12:56.783Z,25.27
2023-05-05T08:13:56.802Z,25.26
2023-05-05T08:14:56.802Z,25.23
2023-05-05T08:15:56.851Z,25.17
2023-05-05T08:16:56.907Z,25.17
2023-05-05T08:17:56.870Z,25.20
2023-05-05T08:18:56.874Z,25.21
2023-05-05T08:19:56.863Z,25.17
2023-05-05T08:20:57.059Z,25.14
2023-05-05T08:21:57.759Z,25.13
2023-05-05T08:22:56.919Z,25.06
2023-05-05T08:23:57.004Z,25.06
2023-05-05T08:24:56.938Z,25.02
2023-05-05T08:25:56.966Z,25.00
2023-05-05T08:26:56.950Z,25.13
2023-05-05T08:27:56.987Z,25.36
2023-05-05T08:28:56.971Z,24.82
2023-05-05T08:29:57.025Z,24.09
2023-05-05T08:30:57.034Z,24.48
2023-05-05T08:31:57.275Z,24.45
2023-05-05T08:32:57.220Z,25.16
2023-05-05T08:33:57.172Z,25.59
2023-05-05T08:34:57.238Z,25.16
2023-05-05T08:35:57.300Z,24.77
2023-05-05T08:36:57.354Z,24.87
2023-05-05T08:37:59.286Z,25.00
2023-05-05T08:38:57.491Z,24.89
2023-05-05T08:39:57.522Z,25.20
2023-05-05T08:40:57.566Z,25.60
2023-05-05T08:41:57.606Z,24.93
2023-05-05T08:42:57.648Z,24.75
2023-05-05T08:43:57.706Z,24.85
2023-05-05T08:44:59.097Z,24.83
2023-05-05T08:45:57.811Z,24.79
2023-05-05T08:46:57.922Z,24.53
2023-05-05T08:47:57.907Z,24.23
2023-05-05T08:48:57.943Z,24.17
2023-05-05T08:49:57.881Z,24.27
2023-05-05T08:50:59.846Z,24.23
2023-05-05T08:51:57.971Z,24.30
2023-05-05T08:52:58.044Z,24.22
2023-05-05T08:53:58.083Z,24.37
2023-05-05T08:54:58.117Z,24.08
2023-05-05T08:55:58.160Z,23.84
2023-05-05T08:56:58.208Z,23.75
2023-05-05T08:57:58.343Z,24.09
2023-05-05T08:58:58.328Z,24.06
2023-05-05T08:59:58.373Z,24.04
2023-05-05T09:00:58.482Z,24.08
2023-05-05T09:01:58.493Z,24.12
2023-05-05T09:02:58.778Z,23.81
2023-05-05T09:03:58.681Z,23.65
2023-05-05T09:04:58.743Z,23.57
2023-05-05T09:05:58.736Z,23.69
2023-05-05T09:06:58.789Z,23.57
2023-05-05T09:07:58.837Z,23.74
2023-05-05T09:08:59.739Z,23.54
2023-05-05T09:09:58.906Z,23.43
2023-05-05T09:10:58.973Z,23.49
2023-05-05T09:11:59.053Z,23.47
2023-05-05T09:12:59.042Z,23.48
2023-05-05T09:13:59.070Z,23.22
2023-05-05T09:14:59.412Z,23.28
2023-05-05T09:15:59.099Z,23.29
2023-05-05T09:16:59.145Z,23.12
2023-05-05T09:17:59.158Z,23.12
2023-05-05T09:18:59.140Z,23.09
2023-05-05T09:19:59.150Z,22.98
2023-05-05T09:20:59.671Z,23.00
2023-05-05T09:21:59.189Z,22.79
2023-05-05T09:22:59.205Z,22.75
2023-05-05T09:24:04.930Z,22.65
2023-05-05T09:25:00.179Z,22.46
2023-05-05T09:25:59.172Z,22.66
2023-05-05T09:26:59.204Z,22.55
2023-05-05T09:27:59.152Z,22.56
2023-05-05T09:28:59.192Z,22.52
2023-05-05T09:29:59.150Z,22.55
2023-05-05T09:30:59.159Z,22.76
2023-05-05T09:31:59.139Z,22.77
2023-05-05T09:32:59.175Z,22.74
2023-05-05T09:33:59.127Z,22.67
2023-05-05T09:34:59.112Z,22.42
2023-05-05T09:35:59.210Z,22.70
2023-05-05T09:36:59.150Z,22.56
2023-05-05T09:37:59.090Z,22.80
2023-05-05T09:38:59.213Z,22.94
2023-05-05T09:39:59.092Z,22.97
2023-05-05T09:40:59.079Z,23.05
2023-05-05T09:41:59.063Z,23.17
2023-05-05T09:42:59.067Z,22.85
2023-05-05T09:43:59.047Z,22.85
2023-05-05T09:44:59.977Z,22.74
2023-05-05T09:45:59.090Z,22.83
2023-05-05T09:46:59.016Z,22.61
2023-05-05T09:48:00.581Z,22.39
2023-05-05T09:48:59.133Z,22.29
2023-05-05T09:49:59.160Z,22.09
2023-05-05T09:50:59.224Z,22.19
2023-05-05T09:51:59.297Z,22.19
2023-05-05T09:52:59.436Z,22.21
2023-05-05T09:53:59.407Z,22.27
2023-05-05T09:54:59.497Z,22.29
2023-05-05T09:55:59.544Z,22.43
2023-05-05T09:56:59.561Z,22.58
2023-05-05T09:57:59.671Z,22.54
2023-05-05T09:58:59.720Z,22.57
2023-05-05T09:59:59.758Z,22.73
2023-05-05T10:00:59.795Z,22.82
2023-05-05T10:01:59.816Z,22.87
2023-05-05T10:02:59.864Z,22.71
2023-05-05T10:03:59.908Z,22.55
2023-05-05T10:05:01.623Z,22.54
2023-05-05T10:05:59.960Z,22.67
2023-05-05T10:06:59.951Z,22.55
2023-05-05T10:07:59.998Z,22.48
2023-05-05T10:09:00.086Z,22.54
2023-05-05T10:10:00.064Z,22.44
2023-05-05T10:11:00.067Z,22.40
2023-05-05T10:12:00.085Z,22.32
2023-05-05T10:13:00.164Z,22.45
2023-05-05T10:14:00.197Z,22.53
2023-05-05T10:15:00.170Z,22.50
2023-05-05T10:16:00.242Z,22.49
2023-05-05T10:17:00.194Z,22.42
2023-05-05T10:18:07.687Z,22.45
2023-05-05T10:19:01.199Z,22.43
2023-05-05T10:20:00.261Z,22.33
2023-05-05T10:21:00.262Z,22.39
2023-05-05T10:22:00.165Z,22.49
2023-05-05T10:23:00.164Z,22.62
2023-05-05T10:24:00.169Z,22.75
2023-05-05T10:25:00.514Z,22.89
2023-05-05T10:26:00.158Z,22.86
2023-05-05T10:27:00.154Z,22.84
2023-05-05T10:28:00.770Z,22.88
2023-05-05T10:29:00.148Z,22.89
2023-05-05T10:30:00.168Z,22.88
2023-05-05T10:31:00.140Z,22.79
2023-05-05T10:32:00.150Z,22.94
2023-05-05T10:34:00.360Z,22.66
2023-05-05T10:35:00.093Z,22.62
2023-05-05T10:36:00.102Z,22.50
2023-05-05T10:37:00.071Z,22.50
2023-05-05T10:38:00.088Z,22.41
2023-05-05T10:39:00.051Z,22.36
2023-05-05T10:40:00.066Z,22.30
2023-05-05T10:41:00.139Z,22.39
2023-05-05T10:42:00.057Z,22.29
2023-05-05T10:43:00.043Z,22.32
2023-05-05T10:44:01.507Z,22.41
2023-05-05T10:45:00.060Z,22.44
2023-05-05T10:46:00.008Z,22.42
2023-05-05T10:46:59.999Z,22.41
2023-05-05T10:48:00.002Z,22.48
2023-05-05T10:49:00.017Z,22.52
2023-05-05T10:49:59.984Z,22.50
2023-05-05T10:51:00.012Z,22.62
2023-05-05T10:51:59.960Z,22.60
2023-05-05T10:52:59.971Z,22.72
2023-05-05T10:53:59.984Z,22.81
2023-05-05T10:54:59.962Z,22.87
2023-05-05T10:55:59.950Z,22.78
2023-05-05T10:57:00.028Z,22.77
2023-05-05T10:57:59.960Z,23.11
2023-05-05T10:59:00.811Z,23.03
2023-05-05T10:59:59.913Z,22.97
2023-05-05T11:00:59.939Z,23.06
2023-05-05T11:01:59.946Z,23.06
2023-05-05T11:02:59.995Z,23.20
2023-05-05T11:03:59.936Z,23.30
2023-05-05T11:04:59.905Z,23.05
2023-05-05T11:05:59.901Z,22.93
2023-05-05T11:06:59.911Z,22.94
2023-05-05T11:07:59.889Z,22.83
2023-05-05T11:08:59.846Z,23.10
2023-05-05T11:09:59.885Z,23.01
2023-05-05T11:10:59.894Z,22.94
2023-05-05T11:11:59.874Z,22.81
2023-05-05T11:12:59.927Z,22.72
2023-05-05T11:13:59.833Z,22.68
2023-05-05T11:14:59.864Z,22.70
2023-05-05T11:15:59.828Z,22.52
2023-05-05T11:16:59.842Z,22.42
2023-05-05T11:17:59.888Z,22.33
2023-05-05T11:18:59.801Z,22.32
2023-05-05T11:19:59.791Z,22.19
2023-05-05T11:20:59.857Z,22.10
2023-05-05T11:21:59.786Z,22.07
2023-05-05T11:22:59.786Z,22.03
2023-05-05T11:23:59.780Z,21.84
2023-05-05T11:25:00.228Z,21.83
2023-05-05T11:25:59.834Z,21.79
2023-05-05T11:26:59.766Z,21.75
2023-05-05T11:27:59.794Z,21.75
2023-05-05T11:28:59.872Z,21.62
2023-05-05T11:29:59.753Z,21.60
2023-05-05T11:30:59.955Z,21.66
2023-05-05T11:31:59.724Z,21.64
2023-05-05T11:32:59.748Z,21.46
2023-05-05T11:33:59.811Z,21.38
2023-05-05T11:34:59.707Z,21.35
2023-05-05T11:35:59.693Z,21.25
2023-05-05T11:36:59.671Z,21.31
2023-05-05T11:37:59.856Z,21.20
2023-05-05T11:38:59.696Z,21.12
2023-05-05T11:39:59.703Z,21.08
2023-05-05T11:40:59.687Z,21.12
2023-05-05T11:41:59.675Z,20.93
2023-05-05T11:42:59.668Z,20.99
2023-05-05T11:43:59.696Z,21.04
2023-05-05T11:44:59.754Z,20.83
2023-05-05T11:45:59.753Z,20.85
2023-05-05T11:46:59.679Z,20.98
2023-05-05T11:47:59.779Z,20.94
2023-05-05T11:48:59.664Z,21.13
2023-05-05T11:49:59.663Z,21.07
2023-05-05T11:50:59.701Z,21.04
2023-05-05T11:51:59.688Z,21.10
2023-05-05T11:52:59.711Z,21.11
2023-05-05T11:53:59.746Z,21.18
2023-05-05T11:54:59.766Z,21.08
2023-05-05T11:55:59.786Z,21.18
2023-05-05T11:56:59.820Z,21.20
2023-05-05T11:57:59.898Z,21.16
2023-05-05T11:58:59.981Z,21.08
2023-05-05T12:00:00.052Z,21.11
2023-05-05T12:01:00.198Z,21.19
2023-05-05T12:02:00.143Z,21.16
2023-05-05T12:03:00.278Z,21.09
2023-05-05T12:04:00.399Z,21.09
2023-05-05T12:05:00.417Z,21.13
2023-05-05T12:06:00.363Z,21.12
2023-05-05T12:07:00.453Z,21.14
2023-05-05T12:08:00.479Z,21.09
2023-05-05T12:09:00.558Z,21.14
2023-05-05T12:10:00.610Z,21.09
2023-05-05T12:11:00.627Z,21.11
2023-05-05T12:12:00.675Z,21.14
2023-05-05T12:13:00.843Z,21.11
2023-05-05T12:14:00.778Z,21.10
2023-05-05T12:15:00.815Z,21.10
2023-05-05T12:16:00.936Z,21.22
2023-05-05T12:17:00.998Z,21.08
2023-05-05T12:18:03.026Z,21.19
2023-05-05T12:19:01.028Z,21.14
2023-05-05T12:20:01.044Z,21.16
2023-05-05T12:21:01.098Z,21.17
2023-05-05T12:22:01.146Z,21.18
2023-05-05T12:23:01.193Z,21.16
2023-05-05T12:24:01.194Z,21.12
2023-05-05T12:25:01.272Z,21.13
2023-05-05T12:26:01.318Z,21.09
2023-05-05T12:27:01.335Z,21.12
2023-05-05T12:28:01.365Z,21.12
2023-05-05T12:29:01.425Z,21.13
2023-05-05T12:30:01.444Z,21.12
2023-05-05T12:31:01.512Z,21.18
2023-05-05T12:32:01.563Z,21.12
2023-05-05T12:33:01.679Z,21.20
2023-05-05T12:34:01.552Z,21.15
2023-05-05T12:35:01.648Z,21.17
2023-05-05T12:36:01.643Z,21.09
2023-05-05T12:37:01.677Z,21.17
2023-05-05T12:38:01.699Z,21.15
2023-05-05T12:39:01.702Z,21.13
2023-05-05T12:40:01.763Z,21.19
2023-05-05T12:41:01.764Z,21.11
2023-05-05T12:42:01.793Z,21.13
2023-05-05T12:43:01.832Z,21.14
2023-05-05T12:44:01.859Z,21.13
2023-05-05T12:45:01.871Z,21.13
2023-05-05T12:46:01.977Z,21.11
2023-05-05T12:47:01.876Z,21.15
2023-05-05T12:48:01.985Z,21.15
2023-05-05T12:49:02.018Z,21.15
2023-05-05T12:50:01.940Z,21.12
2023-05-05T12:51:01.952Z,21.07
2023-05-05T12:52:01.972Z,21.08
2023-05-05T12:53:01.986Z,21.13
2023-05-05T12:54:01.966Z,21.12
2023-05-05T12:55:02.012Z,21.09